sensor_id;sensor_type;location;lat;lon;timestamp;P1;durP1;ratioP1;P2;durP2;ratioP2
20441;SDS011;10380;52.102;20.614;2022-11-20T00:01:22;43.63;;;22.90;;
20441;SDS011;10380;52.102;20.614;2022-11-20T00:03:52;48.57;;;23.33;;
20441;SDS011;10380;52.102;20.614;2022-11-20T00:06:21;46.60;;;22.80;;
20441;SDS011;10380;52.102;20.614;2022-11-20T00:08:48;48.40;;;24.47;;
20441;SDS011;10380;52.102;20.614;2022-11-20T00:11:17;52.43;;;26.43;;
20441;SDS011;10380;52.102;20.614;2022-11-20T00:13:46;52.47;;;23.30;;
20441;SDS011;10380;52.102;20.614;2022-11-20T00:16:16;48.77;;;24.23;;
20441;SDS011;10380;52.102;20.614;2022-11-20T00:18:44;53.67;;;23.97;;
20441;SDS011;10380;52.102;20.614;2022-11-20T00:21:14;49.90;;;24.50;;
20441;SDS011;10380;52.102;20.614;2022-11-20T00:23:47;41.67;;;22.33;;
20441;SDS011;10380;52.102;20.614;2022-11-20T00:26:16;49.83;;;24.03;;
20441;SDS011;10380;52.102;20.614;2022-11-20T00:28:44;43.43;;;23.33;;
20441;SDS011;10380;52.102;20.614;2022-11-20T00:31:15;40.37;;;22.43;;
20441;SDS011;10380;52.102;20.614;2022-11-20T00:33:43;40.67;;;21.90;;
20441;SDS011;10380;52.102;20.614;2022-11-20T00:36:14;45.17;;;21.53;;
20441;SDS011;10380;52.102;20.614;2022-11-20T00:38:43;37.93;;;20.40;;
20441;SDS011;10380;52.102;20.614;2022-11-20T00:41:12;41.80;;;21.63;;
20441;SDS011;10380;52.102;20.614;2022-11-20T00:43:41;39.97;;;20.23;;
20441;SDS011;10380;52.102;20.614;2022-11-20T00:46:15;40.57;;;22.23;;
20441;SDS011;10380;52.102;20.614;2022-11-20T00:48:44;35.33;;;20.27;;
20441;SDS011;10380;52.102;20.614;2022-11-20T00:51:15;41.83;;;21.50;;
20441;SDS011;10380;52.102;20.614;2022-11-20T00:53:44;40.03;;;21.33;;
20441;SDS011;10380;52.102;20.614;2022-11-20T00:56:12;33.83;;;17.77;;
20441;SDS011;10380;52.102;20.614;2022-11-20T00:58:42;40.53;;;21.03;;
20441;SDS011;10380;52.102;20.614;2022-11-20T01:01:11;45.60;;;20.47;;
20441;SDS011;10380;52.102;20.614;2022-11-20T01:03:44;41.40;;;20.00;;
20441;SDS011;10380;52.102;20.614;2022-11-20T01:06:14;39.33;;;19.77;;
20441;SDS011;10380;52.102;20.614;2022-11-20T01:08:44;33.67;;;18.57;;
20441;SDS011;10380;52.102;20.614;2022-11-20T01:11:13;52.73;;;23.13;;
20441;SDS011;10380;52.102;20.614;2022-11-20T01:13:44;42.53;;;20.90;;
20441;SDS011;10380;52.102;20.614;2022-11-20T01:16:13;39.07;;;20.33;;
20441;SDS011;10380;52.102;20.614;2022-11-20T01:18:45;42.60;;;21.13;;
20441;SDS011;10380;52.102;20.614;2022-11-20T01:21:14;28.43;;;17.70;;
20441;SDS011;10380;52.102;20.614;2022-11-20T01:23:43;32.67;;;18.07;;
20441;SDS011;10380;52.102;20.614;2022-11-20T01:26:14;35.20;;;17.93;;
20441;SDS011;10380;52.102;20.614;2022-11-20T01:28:43;34.03;;;16.60;;
20441;SDS011;10380;52.102;20.614;2022-11-20T01:31:20;33.27;;;17.70;;
20441;SDS011;10380;52.102;20.614;2022-11-20T01:33:50;35.63;;;18.60;;
20441;SDS011;10380;52.102;20.614;2022-11-20T01:36:22;32.27;;;17.77;;
20441;SDS011;10380;52.102;20.614;2022-11-20T01:38:54;37.97;;;18.13;;
20441;SDS011;10380;52.102;20.614;2022-11-20T01:41:23;33.33;;;17.97;;
20441;SDS011;10380;52.102;20.614;2022-11-20T01:44:13;37.53;;;17.70;;
20441;SDS011;10380;52.102;20.614;2022-11-20T01:46:52;29.97;;;16.70;;
20441;SDS011;10380;52.102;20.614;2022-11-20T01:49:27;29.90;;;16.73;;
20441;SDS011;10380;52.102;20.614;2022-11-20T01:52:13;32.17;;;16.03;;
20441;SDS011;10380;52.102;20.614;2022-11-20T01:54:58;36.23;;;17.37;;
20441;SDS011;10380;52.102;20.614;2022-11-20T01:57:30;28.73;;;15.80;;
20441;SDS011;10380;52.102;20.614;2022-11-20T02:00:03;32.37;;;18.20;;
20441;SDS011;10380;52.102;20.614;2022-11-20T02:02:33;35.03;;;16.80;;
20441;SDS011;10380;52.102;20.614;2022-11-20T02:05:03;28.77;;;15.20;;
20441;SDS011;10380;52.102;20.614;2022-11-20T02:07:51;30.43;;;17.03;;
20441;SDS011;10380;52.102;20.614;2022-11-20T02:10:20;33.90;;;16.57;;
20441;SDS011;10380;52.102;20.614;2022-11-20T02:12:47;33.43;;;18.33;;
20441;SDS011;10380;52.102;20.614;2022-11-20T02:15:33;37.80;;;17.93;;
20441;SDS011;10380;52.102;20.614;2022-11-20T02:18:01;35.93;;;17.50;;
20441;SDS011;10380;52.102;20.614;2022-11-20T02:20:28;34.77;;;19.20;;
20441;SDS011;10380;52.102;20.614;2022-11-20T02:25:36;28.33;;;16.93;;
20441;SDS011;10380;52.102;20.614;2022-11-20T02:28:05;34.77;;;18.30;;
20441;SDS011;10380;52.102;20.614;2022-11-20T02:30:32;35.43;;;18.30;;
20441;SDS011;10380;52.102;20.614;2022-11-20T02:33:00;33.40;;;17.77;;
20441;SDS011;10380;52.102;20.614;2022-11-20T02:37:54;41.73;;;20.30;;
20441;SDS011;10380;52.102;20.614;2022-11-20T02:40:24;38.70;;;21.17;;
20441;SDS011;10380;52.102;20.614;2022-11-20T02:42:52;30.30;;;17.40;;
20441;SDS011;10380;52.102;20.614;2022-11-20T02:45:21;39.97;;;18.60;;
20441;SDS011;10380;52.102;20.614;2022-11-20T02:47:49;39.70;;;19.83;;
20441;SDS011;10380;52.102;20.614;2022-11-20T02:50:16;37.90;;;20.03;;
20441;SDS011;10380;52.102;20.614;2022-11-20T02:52:44;36.70;;;19.63;;
20441;SDS011;10380;52.102;20.614;2022-11-20T02:55:11;40.30;;;20.33;;
20441;SDS011;10380;52.102;20.614;2022-11-20T02:57:38;37.90;;;20.90;;
20441;SDS011;10380;52.102;20.614;2022-11-20T03:00:05;38.57;;;20.03;;
20441;SDS011;10380;52.102;20.614;2022-11-20T03:02:33;44.20;;;21.53;;
20441;SDS011;10380;52.102;20.614;2022-11-20T03:05:00;41.17;;;21.27;;
20441;SDS011;10380;52.102;20.614;2022-11-20T03:07:27;37.07;;;21.13;;
20441;SDS011;10380;52.102;20.614;2022-11-20T03:09:54;37.57;;;20.13;;
20441;SDS011;10380;52.102;20.614;2022-11-20T03:12:21;37.80;;;19.57;;
20441;SDS011;10380;52.102;20.614;2022-11-20T03:14:47;37.13;;;18.90;;
20441;SDS011;10380;52.102;20.614;2022-11-20T03:17:18;34.57;;;19.87;;
20441;SDS011;10380;52.102;20.614;2022-11-20T03:19:45;43.90;;;20.53;;
20441;SDS011;10380;52.102;20.614;2022-11-20T03:22:12;39.33;;;19.77;;
20441;SDS011;10380;52.102;20.614;2022-11-20T03:24:38;41.00;;;20.10;;
20441;SDS011;10380;52.102;20.614;2022-11-20T03:27:05;36.47;;;20.03;;
20441;SDS011;10380;52.102;20.614;2022-11-20T03:29:32;40.27;;;20.73;;
20441;SDS011;10380;52.102;20.614;2022-11-20T03:32:01;41.07;;;20.03;;
20441;SDS011;10380;52.102;20.614;2022-11-20T03:34:27;40.10;;;21.63;;
20441;SDS011;10380;52.102;20.614;2022-11-20T03:36:54;40.50;;;19.40;;
20441;SDS011;10380;52.102;20.614;2022-11-20T03:39:21;36.40;;;19.17;;
20441;SDS011;10380;52.102;20.614;2022-11-20T03:41:48;38.87;;;20.43;;
20441;SDS011;10380;52.102;20.614;2022-11-20T03:44:15;34.77;;;20.30;;
20441;SDS011;10380;52.102;20.614;2022-11-20T03:46:42;43.73;;;19.67;;
20441;SDS011;10380;52.102;20.614;2022-11-20T03:49:08;35.60;;;20.40;;
20441;SDS011;10380;52.102;20.614;2022-11-20T03:51:35;39.43;;;19.97;;
20441;SDS011;10380;52.102;20.614;2022-11-20T03:54:03;35.43;;;19.27;;
20441;SDS011;10380;52.102;20.614;2022-11-20T03:56:33;38.47;;;19.03;;
20441;SDS011;10380;52.102;20.614;2022-11-20T03:59:02;40.87;;;21.77;;
20441;SDS011;10380;52.102;20.614;2022-11-20T04:01:31;45.03;;;20.87;;
20441;SDS011;10380;52.102;20.614;2022-11-20T04:04:01;43.07;;;21.20;;
20441;SDS011;10380;52.102;20.614;2022-11-20T04:06:29;39.00;;;20.03;;
20441;SDS011;10380;52.102;20.614;2022-11-20T04:09:00;43.77;;;22.13;;
20441;SDS011;10380;52.102;20.614;2022-11-20T04:11:30;38.90;;;20.77;;
20441;SDS011;10380;52.102;20.614;2022-11-20T04:14:03;42.23;;;22.57;;
20441;SDS011;10380;52.102;20.614;2022-11-20T04:16:31;43.60;;;22.80;;
20441;SDS011;10380;52.102;20.614;2022-11-20T04:19:01;47.17;;;20.90;;
20441;SDS011;10380;52.102;20.614;2022-11-20T04:21:30;39.57;;;20.07;;
20441;SDS011;10380;52.102;20.614;2022-11-20T04:23:57;40.87;;;20.53;;
20441;SDS011;10380;52.102;20.614;2022-11-20T04:26:25;40.77;;;21.80;;
20441;SDS011;10380;52.102;20.614;2022-11-20T04:28:53;43.43;;;20.87;;
20441;SDS011;10380;52.102;20.614;2022-11-20T04:31:21;41.20;;;21.23;;
20441;SDS011;10380;52.102;20.614;2022-11-20T04:33:52;43.17;;;21.47;;
20441;SDS011;10380;52.102;20.614;2022-11-20T04:36:20;54.87;;;24.07;;
20441;SDS011;10380;52.102;20.614;2022-11-20T04:38:55;53.37;;;23.93;;
20441;SDS011;10380;52.102;20.614;2022-11-20T04:41:24;45.00;;;22.27;;
20441;SDS011;10380;52.102;20.614;2022-11-20T04:43:54;45.70;;;22.43;;
20441;SDS011;10380;52.102;20.614;2022-11-20T04:46:26;42.37;;;22.67;;
20441;SDS011;10380;52.102;20.614;2022-11-20T04:48:54;38.80;;;21.60;;
20441;SDS011;10380;52.102;20.614;2022-11-20T04:51:21;48.67;;;22.20;;
20441;SDS011;10380;52.102;20.614;2022-11-20T04:53:48;41.87;;;22.30;;
20441;SDS011;10380;52.102;20.614;2022-11-20T04:56:16;49.27;;;22.80;;
20441;SDS011;10380;52.102;20.614;2022-11-20T04:58:43;41.30;;;20.77;;
20441;SDS011;10380;52.102;20.614;2022-11-20T05:01:14;39.83;;;20.53;;
20441;SDS011;10380;52.102;20.614;2022-11-20T05:03:43;41.10;;;22.23;;
20441;SDS011;10380;52.102;20.614;2022-11-20T05:06:11;42.07;;;22.43;;
20441;SDS011;10380;52.102;20.614;2022-11-20T05:08:39;46.47;;;23.40;;
20441;SDS011;10380;52.102;20.614;2022-11-20T05:11:13;46.70;;;22.43;;
20441;SDS011;10380;52.102;20.614;2022-11-20T05:13:42;49.47;;;23.43;;
20441;SDS011;10380;52.102;20.614;2022-11-20T05:16:16;47.83;;;22.10;;
20441;SDS011;10380;52.102;20.614;2022-11-20T05:18:44;42.70;;;22.47;;
20441;SDS011;10380;52.102;20.614;2022-11-20T05:21:12;43.43;;;21.73;;
20441;SDS011;10380;52.102;20.614;2022-11-20T05:23:40;46.97;;;23.10;;
20441;SDS011;10380;52.102;20.614;2022-11-20T05:26:11;48.77;;;22.10;;
20441;SDS011;10380;52.102;20.614;2022-11-20T05:28:47;43.93;;;21.50;;
20441;SDS011;10380;52.102;20.614;2022-11-20T05:31:16;47.83;;;22.73;;
20441;SDS011;10380;52.102;20.614;2022-11-20T05:33:52;43.50;;;22.57;;
20441;SDS011;10380;52.102;20.614;2022-11-20T05:36:18;50.43;;;23.97;;
20441;SDS011;10380;52.102;20.614;2022-11-20T05:38:46;45.03;;;21.63;;
20441;SDS011;10380;52.102;20.614;2022-11-20T05:41:17;49.33;;;24.23;;
20441;SDS011;10380;52.102;20.614;2022-11-20T05:43:46;53.37;;;24.37;;
20441;SDS011;10380;52.102;20.614;2022-11-20T05:46:14;47.83;;;24.20;;
20441;SDS011;10380;52.102;20.614;2022-11-20T05:48:43;52.00;;;26.07;;
20441;SDS011;10380;52.102;20.614;2022-11-20T05:51:11;51.63;;;27.10;;
20441;SDS011;10380;52.102;20.614;2022-11-20T05:53:40;50.37;;;26.70;;
20441;SDS011;10380;52.102;20.614;2022-11-20T05:56:14;48.73;;;27.30;;
20441;SDS011;10380;52.102;20.614;2022-11-20T05:58:43;50.50;;;27.03;;
20441;SDS011;10380;52.102;20.614;2022-11-20T06:01:28;58.80;;;27.33;;
20441;SDS011;10380;52.102;20.614;2022-11-20T06:03:55;56.30;;;27.80;;
20441;SDS011;10380;52.102;20.614;2022-11-20T06:06:22;61.13;;;28.37;;
20441;SDS011;10380;52.102;20.614;2022-11-20T06:08:49;56.13;;;28.37;;
20441;SDS011;10380;52.102;20.614;2022-11-20T06:11:16;64.30;;;30.27;;
20441;SDS011;10380;52.102;20.614;2022-11-20T06:13:43;56.20;;;28.13;;
20441;SDS011;10380;52.102;20.614;2022-11-20T06:16:11;63.67;;;28.90;;
20441;SDS011;10380;52.102;20.614;2022-11-20T06:18:39;65.63;;;30.10;;
20441;SDS011;10380;52.102;20.614;2022-11-20T06:21:10;61.87;;;29.83;;
20441;SDS011;10380;52.102;20.614;2022-11-20T06:23:39;67.47;;;30.03;;
20441;SDS011;10380;52.102;20.614;2022-11-20T06:26:10;51.23;;;26.37;;
20441;SDS011;10380;52.102;20.614;2022-11-20T06:28:42;46.73;;;24.90;;
20441;SDS011;10380;52.102;20.614;2022-11-20T06:31:13;53.63;;;25.13;;
20441;SDS011;10380;52.102;20.614;2022-11-20T06:33:41;52.70;;;25.47;;
20441;SDS011;10380;52.102;20.614;2022-11-20T06:36:09;55.67;;;30.77;;
20441;SDS011;10380;52.102;20.614;2022-11-20T06:38:38;64.83;;;31.53;;
20441;SDS011;10380;52.102;20.614;2022-11-20T06:41:06;60.70;;;27.70;;
20441;SDS011;10380;52.102;20.614;2022-11-20T06:43:36;54.80;;;27.03;;
20441;SDS011;10380;52.102;20.614;2022-11-20T06:46:03;65.77;;;29.00;;
20441;SDS011;10380;52.102;20.614;2022-11-20T06:48:30;55.53;;;29.50;;
20441;SDS011;10380;52.102;20.614;2022-11-20T06:50:56;57.63;;;28.97;;
20441;SDS011;10380;52.102;20.614;2022-11-20T06:53:24;57.30;;;28.73;;
20441;SDS011;10380;52.102;20.614;2022-11-20T06:55:51;56.73;;;29.07;;
20441;SDS011;10380;52.102;20.614;2022-11-20T06:58:18;59.23;;;28.97;;
20441;SDS011;10380;52.102;20.614;2022-11-20T07:00:46;54.67;;;28.33;;
20441;SDS011;10380;52.102;20.614;2022-11-20T07:03:13;63.93;;;30.07;;
20441;SDS011;10380;52.102;20.614;2022-11-20T07:05:40;69.17;;;29.83;;
20441;SDS011;10380;52.102;20.614;2022-11-20T07:08:07;69.57;;;30.10;;
20441;SDS011;10380;52.102;20.614;2022-11-20T07:10:34;64.13;;;30.70;;
20441;SDS011;10380;52.102;20.614;2022-11-20T07:13:01;60.27;;;30.80;;
20441;SDS011;10380;52.102;20.614;2022-11-20T07:15:28;55.63;;;30.17;;
20441;SDS011;10380;52.102;20.614;2022-11-20T07:17:55;54.53;;;27.03;;
20441;SDS011;10380;52.102;20.614;2022-11-20T07:20:25;68.07;;;30.67;;
20441;SDS011;10380;52.102;20.614;2022-11-20T07:22:56;66.40;;;29.43;;
20441;SDS011;10380;52.102;20.614;2022-11-20T07:25:25;61.30;;;29.30;;
20441;SDS011;10380;52.102;20.614;2022-11-20T07:27:52;56.73;;;28.20;;
20441;SDS011;10380;52.102;20.614;2022-11-20T07:30:23;65.23;;;32.97;;
20441;SDS011;10380;52.102;20.614;2022-11-20T07:32:51;59.40;;;31.70;;
20441;SDS011;10380;52.102;20.614;2022-11-20T07:35:19;58.37;;;30.53;;
20441;SDS011;10380;52.102;20.614;2022-11-20T07:37:46;64.27;;;32.07;;
20441;SDS011;10380;52.102;20.614;2022-11-20T07:40:17;54.23;;;27.10;;
20441;SDS011;10380;52.102;20.614;2022-11-20T07:42:48;57.47;;;29.93;;
20441;SDS011;10380;52.102;20.614;2022-11-20T07:45:19;48.17;;;27.97;;
20441;SDS011;10380;52.102;20.614;2022-11-20T07:47:47;55.63;;;27.77;;
20441;SDS011;10380;52.102;20.614;2022-11-20T07:50:15;62.77;;;31.47;;
20441;SDS011;10380;52.102;20.614;2022-11-20T07:52:43;64.03;;;29.27;;
20441;SDS011;10380;52.102;20.614;2022-11-20T07:55:10;58.57;;;30.60;;
20441;SDS011;10380;52.102;20.614;2022-11-20T07:57:37;59.67;;;29.50;;
20441;SDS011;10380;52.102;20.614;2022-11-20T08:00:05;62.47;;;31.27;;
20441;SDS011;10380;52.102;20.614;2022-11-20T08:02:41;61.00;;;30.93;;
20441;SDS011;10380;52.102;20.614;2022-11-20T08:05:08;62.93;;;30.10;;
20441;SDS011;10380;52.102;20.614;2022-11-20T08:07:36;54.97;;;30.40;;
20441;SDS011;10380;52.102;20.614;2022-11-20T08:10:08;59.67;;;29.33;;
20441;SDS011;10380;52.102;20.614;2022-11-20T08:12:42;56.83;;;29.37;;
20441;SDS011;10380;52.102;20.614;2022-11-20T08:15:29;55.13;;;29.47;;
20441;SDS011;10380;52.102;20.614;2022-11-20T08:18:06;58.37;;;30.00;;
20441;SDS011;10380;52.102;20.614;2022-11-20T08:21:01;61.77;;;31.27;;
20441;SDS011;10380;52.102;20.614;2022-11-20T08:23:28;52.47;;;28.17;;
20441;SDS011;10380;52.102;20.614;2022-11-20T08:25:57;51.83;;;29.07;;
20441;SDS011;10380;52.102;20.614;2022-11-20T08:28:24;53.13;;;27.63;;
20441;SDS011;10380;52.102;20.614;2022-11-20T08:30:50;56.73;;;28.43;;
20441;SDS011;10380;52.102;20.614;2022-11-20T08:33:23;53.30;;;25.93;;
20441;SDS011;10380;52.102;20.614;2022-11-20T08:35:50;53.40;;;29.90;;
20441;SDS011;10380;52.102;20.614;2022-11-20T08:38:17;58.80;;;31.97;;
20441;SDS011;10380;52.102;20.614;2022-11-20T08:40:44;53.67;;;28.13;;
20441;SDS011;10380;52.102;20.614;2022-11-20T08:43:31;58.37;;;30.20;;
20441;SDS011;10380;52.102;20.614;2022-11-20T08:45:58;74.73;;;36.93;;
20441;SDS011;10380;52.102;20.614;2022-11-20T08:48:24;57.27;;;30.73;;
20441;SDS011;10380;52.102;20.614;2022-11-20T08:50:51;50.87;;;27.83;;
20441;SDS011;10380;52.102;20.614;2022-11-20T08:53:18;51.97;;;29.33;;
20441;SDS011;10380;52.102;20.614;2022-11-20T08:55:45;57.63;;;31.23;;
20441;SDS011;10380;52.102;20.614;2022-11-20T08:58:12;57.40;;;27.70;;
20441;SDS011;10380;52.102;20.614;2022-11-20T09:00:39;57.43;;;29.43;;
20441;SDS011;10380;52.102;20.614;2022-11-20T09:03:06;57.27;;;30.27;;
20441;SDS011;10380;52.102;20.614;2022-11-20T09:05:33;58.23;;;29.90;;
20441;SDS011;10380;52.102;20.614;2022-11-20T09:08:00;54.43;;;29.73;;
20441;SDS011;10380;52.102;20.614;2022-11-20T09:10:27;50.17;;;28.50;;
20441;SDS011;10380;52.102;20.614;2022-11-20T09:12:54;55.90;;;29.17;;
20441;SDS011;10380;52.102;20.614;2022-11-20T09:15:22;54.00;;;26.97;;
20441;SDS011;10380;52.102;20.614;2022-11-20T09:20:19;56.77;;;28.83;;
20441;SDS011;10380;52.102;20.614;2022-11-20T09:22:47;52.43;;;27.30;;
20441;SDS011;10380;52.102;20.614;2022-11-20T09:25:14;51.37;;;26.80;;
20441;SDS011;10380;52.102;20.614;2022-11-20T09:27:41;52.23;;;27.27;;
20441;SDS011;10380;52.102;20.614;2022-11-20T09:30:10;52.17;;;27.37;;
20441;SDS011;10380;52.102;20.614;2022-11-20T09:32:38;56.20;;;27.30;;
20441;SDS011;10380;52.102;20.614;2022-11-20T09:35:06;51.87;;;29.37;;
20441;SDS011;10380;52.102;20.614;2022-11-20T09:37:34;55.90;;;29.03;;
20441;SDS011;10380;52.102;20.614;2022-11-20T09:40:01;45.53;;;25.07;;
20441;SDS011;10380;52.102;20.614;2022-11-20T09:51:25;44.77;;;23.63;;
20441;SDS011;10380;52.102;20.614;2022-11-20T09:57:11;52.03;;;24.57;;
20441;SDS011;10380;52.102;20.614;2022-11-20T09:59:46;44.00;;;25.53;;
20441;SDS011;10380;52.102;20.614;2022-11-20T10:04:56;44.13;;;24.67;;
20441;SDS011;10380;52.102;20.614;2022-11-20T10:07:32;50.37;;;24.90;;
20441;SDS011;10380;52.102;20.614;2022-11-20T10:10:15;48.07;;;24.07;;
20441;SDS011;10380;52.102;20.614;2022-11-20T10:19:04;37.20;;;20.53;;
20441;SDS011;10380;52.102;20.614;2022-11-20T10:21:38;37.77;;;20.67;;
20441;SDS011;10380;52.102;20.614;2022-11-20T10:24:19;38.93;;;22.03;;
20441;SDS011;10380;52.102;20.614;2022-11-20T10:30:28;46.93;;;24.40;;
20441;SDS011;10380;52.102;20.614;2022-11-20T10:33:13;44.23;;;23.83;;
20441;SDS011;10380;52.102;20.614;2022-11-20T10:35:50;41.80;;;23.57;;
20441;SDS011;10380;52.102;20.614;2022-11-20T10:38:40;45.00;;;24.73;;
20441;SDS011;10380;52.102;20.614;2022-11-20T10:41:16;36.20;;;20.13;;
20441;SDS011;10380;52.102;20.614;2022-11-20T10:43:54;37.13;;;19.37;;
20441;SDS011;10380;52.102;20.614;2022-11-20T10:46:23;40.47;;;20.70;;
20441;SDS011;10380;52.102;20.614;2022-11-20T10:48:51;37.30;;;20.27;;
20441;SDS011;10380;52.102;20.614;2022-11-20T10:51:33;26.17;;;17.03;;
20441;SDS011;10380;52.102;20.614;2022-11-20T10:54:10;32.70;;;17.83;;
20441;SDS011;10380;52.102;20.614;2022-11-20T10:56:47;31.63;;;18.80;;
20441;SDS011;10380;52.102;20.614;2022-11-20T10:59:24;42.67;;;22.30;;
20441;SDS011;10380;52.102;20.614;2022-11-20T11:02:22;37.77;;;19.27;;
20441;SDS011;10380;52.102;20.614;2022-11-20T11:04:51;33.93;;;19.13;;
20441;SDS011;10380;52.102;20.614;2022-11-20T11:07:23;38.80;;;22.07;;
20441;SDS011;10380;52.102;20.614;2022-11-20T11:10:05;42.27;;;22.13;;
20441;SDS011;10380;52.102;20.614;2022-11-20T11:13:01;41.80;;;22.37;;
20441;SDS011;10380;52.102;20.614;2022-11-20T11:15:37;38.60;;;21.90;;
20441;SDS011;10380;52.102;20.614;2022-11-20T11:18:09;36.10;;;20.83;;
20441;SDS011;10380;52.102;20.614;2022-11-20T11:20:37;33.67;;;19.70;;
20441;SDS011;10380;52.102;20.614;2022-11-20T11:23:04;36.40;;;19.47;;
20441;SDS011;10380;52.102;20.614;2022-11-20T11:25:55;38.50;;;19.20;;
20441;SDS011;10380;52.102;20.614;2022-11-20T11:28:24;39.03;;;20.40;;
20441;SDS011;10380;52.102;20.614;2022-11-20T11:30:54;35.77;;;21.37;;
20441;SDS011;10380;52.102;20.614;2022-11-20T11:33:30;41.10;;;21.30;;
20441;SDS011;10380;52.102;20.614;2022-11-20T11:36:00;44.37;;;23.63;;
20441;SDS011;10380;52.102;20.614;2022-11-20T11:38:32;42.90;;;23.07;;
20441;SDS011;10380;52.102;20.614;2022-11-20T11:41:06;46.07;;;24.20;;
20441;SDS011;10380;52.102;20.614;2022-11-20T11:43:36;46.40;;;25.30;;
20441;SDS011;10380;52.102;20.614;2022-11-20T11:46:32;39.47;;;23.57;;
20441;SDS011;10380;52.102;20.614;2022-11-20T11:49:11;44.90;;;24.53;;
20441;SDS011;10380;52.102;20.614;2022-11-20T11:57:22;37.50;;;21.10;;
20441;SDS011;10380;52.102;20.614;2022-11-20T12:07:54;35.27;;;22.67;;
20441;SDS011;10380;52.102;20.614;2022-11-20T12:16:03;35.93;;;22.70;;
20441;SDS011;10380;52.102;20.614;2022-11-20T12:18:30;36.33;;;23.00;;
20441;SDS011;10380;52.102;20.614;2022-11-20T12:26:04;39.50;;;24.47;;
20441;SDS011;10380;52.102;20.614;2022-11-20T12:33:55;40.73;;;22.57;;
20441;SDS011;10380;52.102;20.614;2022-11-20T12:39:18;37.53;;;23.37;;
20441;SDS011;10380;52.102;20.614;2022-11-20T12:53:11;62.50;;;35.17;;
20441;SDS011;10380;52.102;20.614;2022-11-20T13:02:23;46.03;;;26.07;;
20441;SDS011;10380;52.102;20.614;2022-11-20T13:05:19;43.53;;;25.00;;
20441;SDS011;10380;52.102;20.614;2022-11-20T13:07:52;47.27;;;25.00;;
20441;SDS011;10380;52.102;20.614;2022-11-20T13:10:37;43.23;;;24.73;;
20441;SDS011;10380;52.102;20.614;2022-11-20T13:18:22;43.60;;;25.03;;
20441;SDS011;10380;52.102;20.614;2022-11-20T13:20:50;45.90;;;25.53;;
20441;SDS011;10380;52.102;20.614;2022-11-20T13:23:24;36.43;;;23.07;;
20441;SDS011;10380;52.102;20.614;2022-11-20T13:26:06;40.00;;;22.93;;
20441;SDS011;10380;52.102;20.614;2022-11-20T13:28:45;38.50;;;25.13;;
20441;SDS011;10380;52.102;20.614;2022-11-20T13:31:33;43.53;;;25.33;;
20441;SDS011;10380;52.102;20.614;2022-11-20T13:34:03;41.00;;;25.53;;
20441;SDS011;10380;52.102;20.614;2022-11-20T13:36:32;45.17;;;26.63;;
20441;SDS011;10380;52.102;20.614;2022-11-20T13:39:01;48.03;;;26.83;;
20441;SDS011;10380;52.102;20.614;2022-11-20T13:41:33;48.27;;;28.07;;
20441;SDS011;10380;52.102;20.614;2022-11-20T13:46:49;47.97;;;28.33;;
20441;SDS011;10380;52.102;20.614;2022-11-20T13:49:38;59.93;;;28.73;;
20441;SDS011;10380;52.102;20.614;2022-11-20T13:52:27;43.00;;;25.30;;
20441;SDS011;10380;52.102;20.614;2022-11-20T13:55:21;64.93;;;35.47;;
20441;SDS011;10380;52.102;20.614;2022-11-20T13:58:04;61.43;;;33.70;;
20441;SDS011;10380;52.102;20.614;2022-11-20T14:00:32;53.27;;;30.23;;
20441;SDS011;10380;52.102;20.614;2022-11-20T14:03:02;42.77;;;23.73;;
20441;SDS011;10380;52.102;20.614;2022-11-20T14:05:39;46.20;;;26.00;;
20441;SDS011;10380;52.102;20.614;2022-11-20T14:08:41;40.90;;;24.27;;
20441;SDS011;10380;52.102;20.614;2022-11-20T14:16:27;51.87;;;29.37;;
20441;SDS011;10380;52.102;20.614;2022-11-20T14:18:56;54.27;;;28.73;;
20441;SDS011;10380;52.102;20.614;2022-11-20T14:21:37;51.07;;;27.83;;
20441;SDS011;10380;52.102;20.614;2022-11-20T14:24:05;51.67;;;29.30;;
20441;SDS011;10380;52.102;20.614;2022-11-20T14:26:33;44.77;;;28.30;;
20441;SDS011;10380;52.102;20.614;2022-11-20T14:29:00;51.80;;;29.17;;
20441;SDS011;10380;52.102;20.614;2022-11-20T14:31:27;56.40;;;28.33;;
20441;SDS011;10380;52.102;20.614;2022-11-20T14:33:55;63.13;;;31.40;;
20441;SDS011;10380;52.102;20.614;2022-11-20T14:36:23;53.53;;;30.37;;
20441;SDS011;10380;52.102;20.614;2022-11-20T14:38:51;76.83;;;38.63;;
20441;SDS011;10380;52.102;20.614;2022-11-20T14:41:21;63.73;;;34.03;;
20441;SDS011;10380;52.102;20.614;2022-11-20T14:43:54;74.50;;;35.80;;
20441;SDS011;10380;52.102;20.614;2022-11-20T14:46:23;65.97;;;32.93;;
20441;SDS011;10380;52.102;20.614;2022-11-20T14:48:51;61.57;;;32.53;;
20441;SDS011;10380;52.102;20.614;2022-11-20T14:51:38;66.27;;;32.23;;
20441;SDS011;10380;52.102;20.614;2022-11-20T14:56:36;64.30;;;30.03;;
20441;SDS011;10380;52.102;20.614;2022-11-20T14:59:03;60.83;;;30.93;;
20441;SDS011;10380;52.102;20.614;2022-11-20T15:01:31;58.23;;;29.27;;
20441;SDS011;10380;52.102;20.614;2022-11-20T15:04:00;57.60;;;29.30;;
20441;SDS011;10380;52.102;20.614;2022-11-20T15:06:28;55.07;;;29.97;;
20441;SDS011;10380;52.102;20.614;2022-11-20T15:08:55;55.73;;;28.77;;
20441;SDS011;10380;52.102;20.614;2022-11-20T15:11:27;55.50;;;28.80;;
20441;SDS011;10380;52.102;20.614;2022-11-20T15:13:56;72.30;;;34.73;;
20441;SDS011;10380;52.102;20.614;2022-11-20T15:16:24;66.87;;;34.17;;
20441;SDS011;10380;52.102;20.614;2022-11-20T15:18:53;68.37;;;35.43;;
20441;SDS011;10380;52.102;20.614;2022-11-20T15:21:21;69.80;;;36.73;;
20441;SDS011;10380;52.102;20.614;2022-11-20T15:23:48;67.20;;;37.27;;
20441;SDS011;10380;52.102;20.614;2022-11-20T15:26:18;82.20;;;41.77;;
20441;SDS011;10380;52.102;20.614;2022-11-20T15:28:50;73.93;;;37.93;;
20441;SDS011;10380;52.102;20.614;2022-11-20T15:31:19;74.20;;;39.83;;
20441;SDS011;10380;52.102;20.614;2022-11-20T15:33:48;69.77;;;36.97;;
20441;SDS011;10380;52.102;20.614;2022-11-20T15:36:15;65.57;;;32.13;;
20441;SDS011;10380;52.102;20.614;2022-11-20T15:38:42;57.30;;;31.10;;
20441;SDS011;10380;52.102;20.614;2022-11-20T15:41:09;55.60;;;29.33;;
20441;SDS011;10380;52.102;20.614;2022-11-20T15:43:36;52.70;;;27.80;;
20441;SDS011;10380;52.102;20.614;2022-11-20T15:46:05;61.60;;;30.00;;
20441;SDS011;10380;52.102;20.614;2022-11-20T15:48:40;60.80;;;30.43;;
20441;SDS011;10380;52.102;20.614;2022-11-20T15:51:30;61.20;;;31.23;;
20441;SDS011;10380;52.102;20.614;2022-11-20T15:53:59;57.07;;;31.57;;
20441;SDS011;10380;52.102;20.614;2022-11-20T15:56:28;73.43;;;35.77;;
20441;SDS011;10380;52.102;20.614;2022-11-20T15:58:54;68.97;;;33.87;;
20441;SDS011;10380;52.102;20.614;2022-11-20T16:01:21;63.27;;;32.50;;
20441;SDS011;10380;52.102;20.614;2022-11-20T16:03:48;58.87;;;31.80;;
20441;SDS011;10380;52.102;20.614;2022-11-20T16:06:15;63.40;;;32.87;;
20441;SDS011;10380;52.102;20.614;2022-11-20T16:08:42;63.53;;;32.47;;